Terminal Aerodrome Forecast
Issued by NWS

Home | Current Version | Previous Version | Text Only | Print | Product List | Glossary On
Versions: 1 2 3 4 5 6 7 8 9 10 11 12 13 14 15 16
895
FTUS46 KSEW 182101 AAA
TAFBFI
TAF AMD
KBFI 182101Z 1821/1918 13009KT P6SM -RA SCT045 BKN060 BKN070
     FM190300 16008KT 5SM -SHRA BKN018 OVC035
     FM190600 16007KT 5SM -SHRA BR OVC040
     FM191300 16009KT 5SM BR VCSH OVC040=

USA.gov is the U.S. government's official web portal to all federal, state and local government web resources and services.